sensor_id;sensor_type;location;lat;lon;timestamp;pressure;altitude;pressure_sealevel;temperature;humidity
30421;BME280;17218;54.070;10.012;2023-03-23T00:01:22;100024.16;;;9.42;100.00
30421;BME280;17218;54.070;10.012;2023-03-23T00:03:52;100015.56;;;9.42;100.00
30421;BME280;17218;54.070;10.012;2023-03-23T00:06:22;100016.44;;;9.39;100.00
30421;BME280;17218;54.070;10.012;2023-03-23T00:08:52;100017.28;;;9.41;100.00
30421;BME280;17218;54.070;10.012;2023-03-23T00:11:23;100004.56;;;9.27;100.00
30421;BME280;17218;54.070;10.012;2023-03-23T00:13:52;100010.59;;;9.26;100.00
30421;BME280;17218;54.070;10.012;2023-03-23T00:16:20;100015.72;;;9.29;100.00
30421;BME280;17218;54.070;10.012;2023-03-23T00:18:54;100005.38;;;9.31;100.00
30421;BME280;17218;54.070;10.012;2023-03-23T00:21:23;100000.22;;;9.29;100.00
30421;BME280;17218;54.070;10.012;2023-03-23T00:24:01;100008.84;;;9.30;100.00
30421;BME280;17218;54.070;10.012;2023-03-23T00:26:27;100015.69;;;9.31;100.00
30421;BME280;17218;54.070;10.012;2023-03-23T00:28:57;100021.72;;;9.32;100.00
30421;BME280;17218;54.070;10.012;2023-03-23T00:31:25;100015.78;;;9.25;100.00
30421;BME280;17218;54.070;10.012;2023-03-23T00:33:58;100011.41;;;9.30;100.00
30421;BME280;17218;54.070;10.012;2023-03-23T00:36:26;100013.19;;;9.26;100.00
30421;BME280;17218;54.070;10.012;2023-03-23T00:38:53;100003.75;;;9.22;100.00
30421;BME280;17218;54.070;10.012;2023-03-23T00:41:24;99996.81;;;9.26;100.00
30421;BME280;17218;54.070;10.012;2023-03-23T00:43:52;100007.22;;;9.19;100.00
30421;BME280;17218;54.070;10.012;2023-03-23T00:46:18;100000.38;;;9.18;100.00
30421;BME280;17218;54.070;10.012;2023-03-23T00:48:46;99998.63;;;9.19;100.00
30421;BME280;17218;54.070;10.012;2023-03-23T00:51:12;99991.78;;;9.16;100.00
30421;BME280;17218;54.070;10.012;2023-03-23T00:53:39;99996.19;;;9.10;100.00
30421;BME280;17218;54.070;10.012;2023-03-23T00:56:07;99990.81;;;9.24;100.00
30421;BME280;17218;54.070;10.012;2023-03-23T00:58:35;99983.91;;;9.26;100.00
30421;BME280;17218;54.070;10.012;2023-03-23T01:01:02;99978.72;;;9.26;100.00
30421;BME280;17218;54.070;10.012;2023-03-23T01:03:29;99988.94;;;9.35;100.00
30421;BME280;17218;54.070;10.012;2023-03-23T01:05:55;99986.25;;;9.43;100.00
30421;BME280;17218;54.070;10.012;2023-03-23T01:08:23;99995.88;;;9.32;100.00
30421;BME280;17218;54.070;10.012;2023-03-23T01:10:50;99983.78;;;9.32;100.00
30421;BME280;17218;54.070;10.012;2023-03-23T01:13:19;99979.56;;;9.28;100.00
30421;BME280;17218;54.070;10.012;2023-03-23T01:15:49;99983.09;;;9.22;100.00
30421;BME280;17218;54.070;10.012;2023-03-23T01:18:16;99982.13;;;9.29;100.00
30421;BME280;17218;54.070;10.012;2023-03-23T01:20:42;99976.91;;;9.33;100.00
30421;BME280;17218;54.070;10.012;2023-03-23T01:23:08;99968.97;;;9.45;100.00
30421;BME280;17218;54.070;10.012;2023-03-23T01:25:35;99958.53;;;9.51;100.00
30421;BME280;17218;54.070;10.012;2023-03-23T01:28:03;99966.94;;;9.66;100.00
30421;BME280;17218;54.070;10.012;2023-03-23T01:30:29;99964.09;;;9.82;100.00
30421;BME280;17218;54.070;10.012;2023-03-23T01:32:57;99953.78;;;9.78;100.00
30421;BME280;17218;54.070;10.012;2023-03-23T01:35:24;99945.31;;;9.70;100.00
30421;BME280;17218;54.070;10.012;2023-03-23T01:37:50;99931.41;;;9.77;100.00
30421;BME280;17218;54.070;10.012;2023-03-23T01:40:17;99932.28;;;9.78;100.00
30421;BME280;17218;54.070;10.012;2023-03-23T01:42:43;99931.47;;;9.74;100.00
30421;BME280;17218;54.070;10.012;2023-03-23T01:45:26;99924.66;;;9.69;100.00
30421;BME280;17218;54.070;10.012;2023-03-23T01:48:08;99907.81;;;9.44;100.00
30421;BME280;17218;54.070;10.012;2023-03-23T01:50:41;99907.69;;;9.52;100.00
30421;BME280;17218;54.070;10.012;2023-03-23T01:53:10;99913.41;;;9.71;100.00
30421;BME280;17218;54.070;10.012;2023-03-23T01:55:39;99904.78;;;9.72;100.00
30421;BME280;17218;54.070;10.012;2023-03-23T01:58:07;99903.34;;;9.52;100.00
30421;BME280;17218;54.070;10.012;2023-03-23T02:00:34;99906.25;;;9.34;100.00
30421;BME280;17218;54.070;10.012;2023-03-23T02:03:02;99920.78;;;9.39;100.00
30421;BME280;17218;54.070;10.012;2023-03-23T02:05:32;99925.25;;;9.31;100.00
30421;BME280;17218;54.070;10.012;2023-03-23T02:08:01;99903.72;;;9.29;100.00
30421;BME280;17218;54.070;10.012;2023-03-23T02:10:29;99896.06;;;9.24;100.00
30421;BME280;17218;54.070;10.012;2023-03-23T02:12:56;99900.31;;;9.27;100.00
30421;BME280;17218;54.070;10.012;2023-03-23T02:15:24;99897.44;;;9.46;100.00
30421;BME280;17218;54.070;10.012;2023-03-23T02:17:57;99884.56;;;9.42;100.00
30421;BME280;17218;54.070;10.012;2023-03-23T02:20:41;99890.00;;;9.25;100.00
30421;BME280;17218;54.070;10.012;2023-03-23T02:23:24;99872.09;;;9.14;100.00
30421;BME280;17218;54.070;10.012;2023-03-23T02:26:03;99856.09;;;8.89;100.00
30421;BME280;17218;54.070;10.012;2023-03-23T02:28:53;99875.88;;;8.90;100.00
30421;BME280;17218;54.070;10.012;2023-03-23T02:31:37;99872.34;;;8.95;100.00
30421;BME280;17218;54.070;10.012;2023-03-23T02:34:13;99850.78;;;9.00;100.00
30421;BME280;17218;54.070;10.012;2023-03-23T02:36:46;99856.53;;;9.16;100.00
30421;BME280;17218;54.070;10.012;2023-03-23T02:39:19;99856.59;;;9.13;100.00
30421;BME280;17218;54.070;10.012;2023-03-23T02:41:50;99869.53;;;9.13;100.00
30421;BME280;17218;54.070;10.012;2023-03-23T02:44:19;99860.03;;;9.15;100.00
30421;BME280;17218;54.070;10.012;2023-03-23T02:46:46;99851.63;;;9.00;100.00
30421;BME280;17218;54.070;10.012;2023-03-23T02:49:16;99842.06;;;9.05;100.00
30421;BME280;17218;54.070;10.012;2023-03-23T02:51:46;99841.00;;;9.17;100.00
30421;BME280;17218;54.070;10.012;2023-03-23T02:54:15;99834.06;;;9.23;100.00
30421;BME280;17218;54.070;10.012;2023-03-23T02:56:44;99817.91;;;9.08;100.00
30421;BME280;17218;54.070;10.012;2023-03-23T02:59:11;99818.03;;;9.02;100.00
30421;BME280;17218;54.070;10.012;2023-03-23T03:01:57;99817.00;;;9.12;100.00
30421;BME280;17218;54.070;10.012;2023-03-23T03:04:26;99813.41;;;9.23;100.00
30421;BME280;17218;54.070;10.012;2023-03-23T03:07:16;99805.50;;;9.30;100.00
30421;BME280;17218;54.070;10.012;2023-03-23T03:09:52;99789.25;;;9.24;100.00
30421;BME280;17218;54.070;10.012;2023-03-23T03:12:26;99783.72;;;8.92;100.00
30421;BME280;17218;54.070;10.012;2023-03-23T03:14:59;99788.28;;;8.76;100.00
30421;BME280;17218;54.070;10.012;2023-03-23T03:17:28;99796.25;;;8.60;100.00
30421;BME280;17218;54.070;10.012;2023-03-23T03:20:01;99794.56;;;8.54;100.00
30421;BME280;17218;54.070;10.012;2023-03-23T03:22:32;99782.53;;;8.58;100.00
30421;BME280;17218;54.070;10.012;2023-03-23T03:25:03;99792.78;;;8.63;100.00
30421;BME280;17218;54.070;10.012;2023-03-23T03:27:31;99783.09;;;8.77;100.00
30421;BME280;17218;54.070;10.012;2023-03-23T03:30:01;99779.72;;;8.72;100.00
30421;BME280;17218;54.070;10.012;2023-03-23T03:32:34;99774.47;;;8.78;100.00
30421;BME280;17218;54.070;10.012;2023-03-23T03:35:06;99769.22;;;8.83;100.00
30421;BME280;17218;54.070;10.012;2023-03-23T03:37:34;99804.38;;;8.92;100.00
30421;BME280;17218;54.070;10.012;2023-03-23T03:40:04;99811.34;;;8.87;100.00
30421;BME280;17218;54.070;10.012;2023-03-23T03:42:36;99841.38;;;8.94;100.00
30421;BME280;17218;54.070;10.012;2023-03-23T03:45:02;99850.69;;;9.04;100.00
30421;BME280;17218;54.070;10.012;2023-03-23T03:47:29;99844.53;;;9.12;100.00
30421;BME280;17218;54.070;10.012;2023-03-23T03:49:55;99836.84;;;9.09;100.00
30421;BME280;17218;54.070;10.012;2023-03-23T03:52:23;99823.13;;;9.05;100.00
30421;BME280;17218;54.070;10.012;2023-03-23T03:54:50;99822.97;;;9.14;100.00
30421;BME280;17218;54.070;10.012;2023-03-23T03:57:16;99831.47;;;9.21;100.00
30421;BME280;17218;54.070;10.012;2023-03-23T03:59:43;99798.84;;;9.17;100.00
30421;BME280;17218;54.070;10.012;2023-03-23T04:02:11;99803.91;;;9.22;100.00
30421;BME280;17218;54.070;10.012;2023-03-23T04:04:40;99804.59;;;9.33;100.00
30421;BME280;17218;54.070;10.012;2023-03-23T04:07:06;99801.97;;;9.35;100.00
30421;BME280;17218;54.070;10.012;2023-03-23T04:09:37;99794.19;;;9.36;100.00
30421;BME280;17218;54.070;10.012;2023-03-23T04:12:04;99795.75;;;9.45;100.00
30421;BME280;17218;54.070;10.012;2023-03-23T04:14:31;99791.41;;;9.47;100.00
30421;BME280;17218;54.070;10.012;2023-03-23T04:16:57;99804.31;;;9.50;100.00
30421;BME280;17218;54.070;10.012;2023-03-23T04:19:24;99799.81;;;9.60;100.00
30421;BME280;17218;54.070;10.012;2023-03-23T04:21:53;99760.97;;;9.63;100.00
30421;BME280;17218;54.070;10.012;2023-03-23T04:24:20;99760.00;;;9.68;100.00
30421;BME280;17218;54.070;10.012;2023-03-23T04:26:50;99768.69;;;9.65;100.00
30421;BME280;17218;54.070;10.012;2023-03-23T04:29:17;99766.50;;;9.45;100.00
30421;BME280;17218;54.070;10.012;2023-03-23T04:31:44;99772.63;;;9.39;100.00
30421;BME280;17218;54.070;10.012;2023-03-23T04:34:11;99761.31;;;8.94;100.00
30421;BME280;17218;54.070;10.012;2023-03-23T04:36:38;99766.63;;;8.85;100.00
30421;BME280;17218;54.070;10.012;2023-03-23T04:39:06;99766.03;;;8.67;100.00
30421;BME280;17218;54.070;10.012;2023-03-23T04:41:35;99758.44;;;8.53;100.00
30421;BME280;17218;54.070;10.012;2023-03-23T04:44:03;99755.03;;;8.52;100.00
30421;BME280;17218;54.070;10.012;2023-03-23T04:46:30;99761.69;;;8.70;100.00
30421;BME280;17218;54.070;10.012;2023-03-23T04:48:57;99773.38;;;8.93;100.00
30421;BME280;17218;54.070;10.012;2023-03-23T04:58:08;99763.81;;;8.39;100.00
30421;BME280;17218;54.070;10.012;2023-03-23T05:00:36;99773.06;;;8.55;100.00
30421;BME280;17218;54.070;10.012;2023-03-23T05:03:03;99757.47;;;8.65;100.00
30421;BME280;17218;54.070;10.012;2023-03-23T05:05:29;99752.38;;;8.58;100.00
30421;BME280;17218;54.070;10.012;2023-03-23T05:07:57;99748.91;;;8.61;100.00
30421;BME280;17218;54.070;10.012;2023-03-23T05:10:32;99754.00;;;8.66;100.00
30421;BME280;17218;54.070;10.012;2023-03-23T05:12:59;99757.38;;;8.69;100.00
30421;BME280;17218;54.070;10.012;2023-03-23T05:15:26;99757.19;;;8.83;100.00
30421;BME280;17218;54.070;10.012;2023-03-23T05:17:53;99762.09;;;8.98;100.00
30421;BME280;17218;54.070;10.012;2023-03-23T05:20:21;99753.25;;;9.13;100.00
30421;BME280;17218;54.070;10.012;2023-03-23T05:22:48;99763.53;;;9.16;100.00
30421;BME280;17218;54.070;10.012;2023-03-23T05:25:15;99774.66;;;9.19;100.00
30421;BME280;17218;54.070;10.012;2023-03-23T05:27:45;99769.44;;;9.24;100.00
30421;BME280;17218;54.070;10.012;2023-03-23T05:30:14;99755.53;;;9.32;100.00
30421;BME280;17218;54.070;10.012;2023-03-23T05:32:42;99751.16;;;9.35;100.00
30421;BME280;17218;54.070;10.012;2023-03-23T05:35:12;99752.03;;;9.33;100.00
30421;BME280;17218;54.070;10.012;2023-03-23T05:37:38;99751.19;;;9.34;100.00
30421;BME280;17218;54.070;10.012;2023-03-23T05:40:06;99751.81;;;9.47;100.00
30421;BME280;17218;54.070;10.012;2023-03-23T05:42:33;99764.56;;;9.54;100.00
30421;BME280;17218;54.070;10.012;2023-03-23T05:45:01;99773.09;;;9.60;100.00
30421;BME280;17218;54.070;10.012;2023-03-23T05:47:28;99759.16;;;9.69;100.00
30421;BME280;17218;54.070;10.012;2023-03-23T05:49:55;99760.09;;;9.64;100.00
30421;BME280;17218;54.070;10.012;2023-03-23T05:52:23;99760.16;;;9.60;100.00
30421;BME280;17218;54.070;10.012;2023-03-23T05:54:50;99746.44;;;9.58;100.00
30421;BME280;17218;54.070;10.012;2023-03-23T05:57:17;99747.28;;;9.57;100.00
30421;BME280;17218;54.070;10.012;2023-03-23T05:59:43;99740.44;;;9.56;100.00
30421;BME280;17218;54.070;10.012;2023-03-23T06:02:10;99732.72;;;9.52;100.00
30421;BME280;17218;54.070;10.012;2023-03-23T06:04:39;99729.19;;;9.57;100.00
30421;BME280;17218;54.070;10.012;2023-03-23T06:07:06;99743.22;;;9.45;100.00
30421;BME280;17218;54.070;10.012;2023-03-23T06:09:34;99737.19;;;9.44;100.00
30421;BME280;17218;54.070;10.012;2023-03-23T06:12:01;99723.34;;;9.48;100.00
30421;BME280;17218;54.070;10.012;2023-03-23T06:14:27;99723.38;;;9.45;100.00
30421;BME280;17218;54.070;10.012;2023-03-23T06:16:54;99730.34;;;9.43;100.00
30421;BME280;17218;54.070;10.012;2023-03-23T06:19:20;99730.31;;;9.45;100.00
30421;BME280;17218;54.070;10.012;2023-03-23T06:21:48;99749.03;;;9.58;100.00
30421;BME280;17218;54.070;10.012;2023-03-23T06:24:15;99731.47;;;9.74;100.00
30421;BME280;17218;54.070;10.012;2023-03-23T06:26:42;99739.94;;;9.81;100.00
30421;BME280;17218;54.070;10.012;2023-03-23T06:29:09;99737.28;;;9.85;100.00
30421;BME280;17218;54.070;10.012;2023-03-23T06:31:38;99728.41;;;9.97;100.00
30421;BME280;17218;54.070;10.012;2023-03-23T06:34:07;99735.81;;;10.14;100.00
30421;BME280;17218;54.070;10.012;2023-03-23T06:36:34;99714.97;;;10.19;100.00
30421;BME280;17218;54.070;10.012;2023-03-23T06:39:00;99714.00;;;10.25;100.00
30421;BME280;17218;54.070;10.012;2023-03-23T06:41:29;99713.41;;;10.12;100.00
30421;BME280;17218;54.070;10.012;2023-03-23T06:43:57;99719.34;;;10.19;100.00
30421;BME280;17218;54.070;10.012;2023-03-23T06:46:23;99719.91;;;10.32;100.00
30421;BME280;17218;54.070;10.012;2023-03-23T06:48:50;99720.66;;;10.37;100.00
30421;BME280;17218;54.070;10.012;2023-03-23T06:51:16;99709.47;;;10.35;100.00
30421;BME280;17218;54.070;10.012;2023-03-23T06:53:43;99724.09;;;10.36;100.00
30421;BME280;17218;54.070;10.012;2023-03-23T06:56:10;99719.97;;;10.29;100.00
30421;BME280;17218;54.070;10.012;2023-03-23T06:58:38;99712.28;;;10.25;100.00
30421;BME280;17218;54.070;10.012;2023-03-23T07:01:06;99708.72;;;10.30;100.00
30421;BME280;17218;54.070;10.012;2023-03-23T07:03:33;99713.91;;;10.30;100.00
30421;BME280;17218;54.070;10.012;2023-03-23T07:06:00;99712.09;;;10.33;100.00
30421;BME280;17218;54.070;10.012;2023-03-23T07:08:27;99711.13;;;10.37;100.00
30421;BME280;17218;54.070;10.012;2023-03-23T07:10:54;99711.97;;;10.38;100.00
30421;BME280;17218;54.070;10.012;2023-03-23T07:13:21;99713.66;;;10.41;100.00
30421;BME280;17218;54.070;10.012;2023-03-23T07:15:48;99709.56;;;10.32;100.00
30421;BME280;17218;54.070;10.012;2023-03-23T07:18:17;99729.59;;;10.22;100.00
30421;BME280;17218;54.070;10.012;2023-03-23T07:20:46;99721.19;;;10.12;100.00
30421;BME280;17218;54.070;10.012;2023-03-23T07:23:13;99750.50;;;10.12;100.00
30421;BME280;17218;54.070;10.012;2023-03-23T07:25:39;99740.09;;;10.16;100.00
30421;BME280;17218;54.070;10.012;2023-03-23T07:28:06;99766.63;;;10.25;100.00
30421;BME280;17218;54.070;10.012;2023-03-23T07:30:33;99760.31;;;9.98;100.00
30421;BME280;17218;54.070;10.012;2023-03-23T07:32:59;99765.59;;;9.92;100.00
30421;BME280;17218;54.070;10.012;2023-03-23T07:35:31;99787.03;;;9.97;100.00
30421;BME280;17218;54.070;10.012;2023-03-23T07:37:58;99783.00;;;9.83;100.00
30421;BME280;17218;54.070;10.012;2023-03-23T07:40:25;99761.41;;;9.84;100.00
30421;BME280;17218;54.070;10.012;2023-03-23T07:42:53;99759.66;;;9.86;100.00
30421;BME280;17218;54.070;10.012;2023-03-23T07:45:20;99763.25;;;9.79;100.00
30421;BME280;17218;54.070;10.012;2023-03-23T07:47:47;99758.56;;;9.52;100.00
30421;BME280;17218;54.070;10.012;2023-03-23T07:50:13;99755.94;;;9.56;100.00
30421;BME280;17218;54.070;10.012;2023-03-23T07:52:41;99755.84;;;9.60;100.00
30421;BME280;17218;54.070;10.012;2023-03-23T07:55:10;99758.53;;;9.56;100.00
30421;BME280;17218;54.070;10.012;2023-03-23T07:57:42;99773.78;;;9.70;100.00
30421;BME280;17218;54.070;10.012;2023-03-23T08:00:10;99771.72;;;9.86;100.00
30421;BME280;17218;54.070;10.012;2023-03-23T08:02:39;99775.19;;;9.86;100.00
30421;BME280;17218;54.070;10.012;2023-03-23T08:05:06;99775.91;;;9.95;100.00
30421;BME280;17218;54.070;10.012;2023-03-23T08:07:33;99760.09;;;10.07;100.00
30421;BME280;17218;54.070;10.012;2023-03-23T08:10:02;99763.28;;;10.20;100.00
30421;BME280;17218;54.070;10.012;2023-03-23T08:12:29;99760.84;;;10.12;100.00
30421;BME280;17218;54.070;10.012;2023-03-23T08:14:55;99768.34;;;10.25;100.00
30421;BME280;17218;54.070;10.012;2023-03-23T08:17:22;99760.69;;;10.20;100.00
30421;BME280;17218;54.070;10.012;2023-03-23T08:19:48;99763.75;;;10.38;100.00
30421;BME280;17218;54.070;10.012;2023-03-23T08:22:17;99764.50;;;10.43;100.00
30421;BME280;17218;54.070;10.012;2023-03-23T08:24:44;99767.25;;;10.37;100.00
30421;BME280;17218;54.070;10.012;2023-03-23T08:27:12;99772.31;;;10.42;100.00
30421;BME280;17218;54.070;10.012;2023-03-23T08:29:39;99768.44;;;10.22;100.00
30421;BME280;17218;54.070;10.012;2023-03-23T08:32:06;99762.50;;;10.17;100.00
30421;BME280;17218;54.070;10.012;2023-03-23T08:34:32;99769.91;;;10.32;100.00
30421;BME280;17218;54.070;10.012;2023-03-23T08:36:59;99765.47;;;10.39;100.00
30421;BME280;17218;54.070;10.012;2023-03-23T08:39:25;99750.59;;;10.49;100.00
30421;BME280;17218;54.070;10.012;2023-03-23T08:41:53;99771.13;;;10.58;100.00
30421;BME280;17218;54.070;10.012;2023-03-23T08:44:21;99763.81;;;10.76;100.00
30421;BME280;17218;54.070;10.012;2023-03-23T08:46:47;99775.56;;;10.90;100.00
30421;BME280;17218;54.070;10.012;2023-03-23T08:49:14;99774.00;;;11.19;100.00
30421;BME280;17218;54.070;10.012;2023-03-23T08:51:41;99778.47;;;11.47;100.00
30421;BME280;17218;54.070;10.012;2023-03-23T08:54:08;99766.13;;;11.57;100.00
30421;BME280;17218;54.070;10.012;2023-03-23T08:56:35;99760.28;;;11.80;100.00
30421;BME280;17218;54.070;10.012;2023-03-23T08:59:01;99769.19;;;11.72;100.00
30421;BME280;17218;54.070;10.012;2023-03-23T09:01:30;99763.66;;;11.51;100.00
30421;BME280;17218;54.070;10.012;2023-03-23T09:03:57;99767.69;;;11.29;100.00
30421;BME280;17218;54.070;10.012;2023-03-23T09:06:23;99771.28;;;11.24;100.00
30421;BME280;17218;54.070;10.012;2023-03-23T09:08:50;99776.63;;;11.17;100.00
30421;BME280;17218;54.070;10.012;2023-03-23T09:11:16;99763.56;;;11.22;100.00
30421;BME280;17218;54.070;10.012;2023-03-23T09:13:43;99769.25;;;11.37;100.00
30421;BME280;17218;54.070;10.012;2023-03-23T09:16:09;99768.84;;;11.51;100.00
30421;BME280;17218;54.070;10.012;2023-03-23T09:18:37;99770.34;;;11.28;100.00
30421;BME280;17218;54.070;10.012;2023-03-23T09:21:04;99772.50;;;11.43;100.00
30421;BME280;17218;54.070;10.012;2023-03-23T09:23:32;99781.19;;;11.74;100.00
30421;BME280;17218;54.070;10.012;2023-03-23T09:26:00;99783.63;;;11.80;100.00
30421;BME280;17218;54.070;10.012;2023-03-23T09:28:27;99781.13;;;11.77;100.00
30421;BME280;17218;54.070;10.012;2023-03-23T09:30:54;99766.53;;;12.05;100.00
30421;BME280;17218;54.070;10.012;2023-03-23T09:33:21;99796.41;;;12.20;100.00
30421;BME280;17218;54.070;10.012;2023-03-23T09:35:49;99776.34;;;11.93;100.00
30421;BME280;17218;54.070;10.012;2023-03-23T09:38:16;99777.56;;;11.81;100.00
30421;BME280;17218;54.070;10.012;2023-03-23T09:40:45;99772.44;;;12.10;100.00
30421;BME280;17218;54.070;10.012;2023-03-23T09:43:43;99792.53;;;12.34;100.00
30421;BME280;17218;54.070;10.012;2023-03-23T09:46:26;99792.13;;;12.48;100.00
30421;BME280;17218;54.070;10.012;2023-03-23T09:48:58;99799.22;;;12.43;100.00
30421;BME280;17218;54.070;10.012;2023-03-23T09:51:37;99805.56;;;12.32;100.00
30421;BME280;17218;54.070;10.012;2023-03-23T09:54:12;99803.44;;;12.16;100.00
30421;BME280;17218;54.070;10.012;2023-03-23T09:56:39;99827.13;;;12.02;100.00
30421;BME280;17218;54.070;10.012;2023-03-23T09:59:12;99812.56;;;11.98;100.00
30421;BME280;17218;54.070;10.012;2023-03-23T10:01:43;99804.72;;;12.32;100.00
30421;BME280;17218;54.070;10.012;2023-03-23T10:04:15;99815.91;;;12.34;100.00
30421;BME280;17218;54.070;10.012;2023-03-23T10:06:46;99805.63;;;12.31;100.00
30421;BME280;17218;54.070;10.012;2023-03-23T10:09:15;99813.00;;;12.45;100.00
30421;BME280;17218;54.070;10.012;2023-03-23T10:11:50;99804.72;;;12.32;100.00
30421;BME280;17218;54.070;10.012;2023-03-23T10:14:40;99812.97;;;12.46;100.00
30421;BME280;17218;54.070;10.012;2023-03-23T10:17:13;99838.47;;;12.32;100.00
30421;BME280;17218;54.070;10.012;2023-03-23T10:19:47;99826.28;;;12.34;100.00
30421;BME280;17218;54.070;10.012;2023-03-23T10:22:32;99820.22;;;12.35;100.00
30421;BME280;17218;54.070;10.012;2023-03-23T10:25:05;99830.22;;;12.78;100.00
30421;BME280;17218;54.070;10.012;2023-03-23T10:27:39;99829.97;;;13.12;100.00
30421;BME280;17218;54.070;10.012;2023-03-23T10:30:16;99837.78;;;13.12;100.00
30421;BME280;17218;54.070;10.012;2023-03-23T10:32:47;99833.47;;;13.11;100.00
30421;BME280;17218;54.070;10.012;2023-03-23T10:35:19;99837.25;;;13.28;100.00
30421;BME280;17218;54.070;10.012;2023-03-23T10:37:51;99843.06;;;13.36;100.00
30421;BME280;17218;54.070;10.012;2023-03-23T10:40:23;99850.69;;;13.16;100.00
30421;BME280;17218;54.070;10.012;2023-03-23T10:42:52;99866.75;;;13.00;100.00
30421;BME280;17218;54.070;10.012;2023-03-23T10:45:21;99860.59;;;12.75;100.00
30421;BME280;17218;54.070;10.012;2023-03-23T10:47:53;99873.97;;;12.61;100.00
30421;BME280;17218;54.070;10.012;2023-03-23T10:50:23;99870.06;;;12.48;100.00
30421;BME280;17218;54.070;10.012;2023-03-23T10:52:54;99913.81;;;12.62;100.00
30421;BME280;17218;54.070;10.012;2023-03-23T10:55:24;99888.31;;;12.75;100.00
30421;BME280;17218;54.070;10.012;2023-03-23T10:58:00;99877.47;;;12.91;100.00
30421;BME280;17218;54.070;10.012;2023-03-23T11:00:28;99888.09;;;12.83;100.00
30421;BME280;17218;54.070;10.012;2023-03-23T11:03:00;99906.94;;;12.90;100.00
30421;BME280;17218;54.070;10.012;2023-03-23T11:05:33;99888.94;;;12.53;100.00
30421;BME280;17218;54.070;10.012;2023-03-23T11:08:02;99906.69;;;12.38;100.00
30421;BME280;17218;54.070;10.012;2023-03-23T11:10:35;99886.84;;;12.36;100.00
30421;BME280;17218;54.070;10.012;2023-03-23T11:13:03;99892.06;;;12.34;100.00
30421;BME280;17218;54.070;10.012;2023-03-23T11:15:37;99889.72;;;13.14;100.00
30421;BME280;17218;54.070;10.012;2023-03-23T11:18:05;99876.09;;;13.87;100.00
30421;BME280;17218;54.070;10.012;2023-03-23T11:20:35;99897.53;;;14.67;100.00
30421;BME280;17218;54.070;10.012;2023-03-23T11:23:10;99904.44;;;15.15;100.00
30421;BME280;17218;54.070;10.012;2023-03-23T11:25:58;99915.53;;;14.74;100.00
30421;BME280;17218;54.070;10.012;2023-03-23T11:28:30;99922.00;;;14.63;100.00
30421;BME280;17218;54.070;10.012;2023-03-23T11:30:58;99938.22;;;14.24;100.00
30421;BME280;17218;54.070;10.012;2023-03-23T11:33:29;99918.47;;;13.92;100.00
30421;BME280;17218;54.070;10.012;2023-03-23T11:35:57;99919.03;;;13.75;100.00
30421;BME280;17218;54.070;10.012;2023-03-23T11:38:25;99917.06;;;14.31;100.00
30421;BME280;17218;54.070;10.012;2023-03-23T11:40:53;99921.38;;;15.05;100.00
30421;BME280;17218;54.070;10.012;2023-03-23T11:43:21;99920.50;;;14.82;100.00
30421;BME280;17218;54.070;10.012;2023-03-23T11:45:56;99931.44;;;14.43;100.00
30421;BME280;17218;54.070;10.012;2023-03-23T11:48:30;99930.94;;;14.80;100.00
30421;BME280;17218;54.070;10.012;2023-03-23T11:51:01;99921.53;;;15.22;100.00
30421;BME280;17218;54.070;10.012;2023-03-23T11:53:40;99916.53;;;15.38;100.00
30421;BME280;17218;54.070;10.012;2023-03-23T11:56:14;99925.44;;;15.55;100.00
30421;BME280;17218;54.070;10.012;2023-03-23T11:58:42;99913.19;;;15.36;100.00
30421;BME280;17218;54.070;10.012;2023-03-23T12:01:16;99913.78;;;15.21;100.00
30421;BME280;17218;54.070;10.012;2023-03-23T12:04:17;99911.72;;;16.33;100.00
30421;BME280;17218;54.070;10.012;2023-03-23T12:06:53;99909.06;;;17.30;100.00
30421;BME280;17218;54.070;10.012;2023-03-23T12:09:34;99902.16;;;17.64;100.00
30421;BME280;17218;54.070;10.012;2023-03-23T12:12:12;99906.50;;;17.11;100.00
30421;BME280;17218;54.070;10.012;2023-03-23T12:14:48;99905.59;;;17.12;100.00
30421;BME280;17218;54.070;10.012;2023-03-23T12:17:24;99900.16;;;16.78;100.00
30421;BME280;17218;54.070;10.012;2023-03-23T12:20:03;99908.69;;;17.01;100.00
30421;BME280;17218;54.070;10.012;2023-03-23T12:22:43;99917.31;;;17.03;100.00
30421;BME280;17218;54.070;10.012;2023-03-23T12:25:23;99921.94;;;15.98;100.00
30421;BME280;17218;54.070;10.012;2023-03-23T12:27:54;99932.16;;;15.40;100.00
30421;BME280;17218;54.070;10.012;2023-03-23T12:30:30;99934.53;;;14.77;100.00
30421;BME280;17218;54.070;10.012;2023-03-23T12:33:13;99936.50;;;14.47;100.00
30421;BME280;17218;54.070;10.012;2023-03-23T12:36:01;99923.09;;;14.58;100.00
30421;BME280;17218;54.070;10.012;2023-03-23T12:38:48;99923.13;;;15.91;100.00
30421;BME280;17218;54.070;10.012;2023-03-23T12:41:22;99908.06;;;16.96;100.00
30421;BME280;17218;54.070;10.012;2023-03-23T12:43:57;99895.69;;;17.72;100.00
30421;BME280;17218;54.070;10.012;2023-03-23T12:46:49;99905.31;;;18.73;100.00
30421;BME280;17218;54.070;10.012;2023-03-23T12:49:19;99902.44;;;17.94;100.00
30421;BME280;17218;54.070;10.012;2023-03-23T12:51:51;99909.69;;;16.98;100.00
30421;BME280;17218;54.070;10.012;2023-03-23T12:54:28;99902.19;;;18.16;100.00
30421;BME280;17218;54.070;10.012;2023-03-23T12:57:02;99907.81;;;18.58;100.00
30421;BME280;17218;54.070;10.012;2023-03-23T12:59:36;99906.47;;;19.16;100.00
30421;BME280;17218;54.070;10.012;2023-03-23T13:02:14;99899.53;;;20.92;100.00
30421;BME280;17218;54.070;10.012;2023-03-23T13:04:45;99893.84;;;23.07;100.00
30421;BME280;17218;54.070;10.012;2023-03-23T13:07:16;99894.13;;;22.66;77.24